Time;durP1;ratioP1;P1;durP2;ratioP2;P2;SDS_P1;SDS_P2;PMS_P1;PMS_P2;Temp;Humidity;BMP_temperature;BMP_pressure;BME280_temperature;BME280_humidity;BME280_pressure;Samples;Min_cycle;Max_cycle;Signal;HPM_P1;HPM_P2
2021/12/27 00:01:07;;;;;;;40.17;24.20;;;;;;;2.21;100.00;100205.94;5032581;28;20040;-79
2021/12/27 00:03:32;;;;;;;41.77;26.77;;;;;;;2.54;100.00;100254.75;5032891;28;20030;-80
2021/12/27 00:05:58;;;;;;;43.63;26.10;;;;;;;2.54;100.00;100250.47;5032023;28;20280;-79
2021/12/27 00:08:23;;;;;;;43.28;25.35;;;;;;;2.56;100.00;100247.88;5032444;28;20052;-82
2021/12/27 00:10:49;;;;;;;44.35;24.92;;;;;;;2.57;100.00;100252.09;5032688;28;20044;-88
2021/12/27 00:13:15;;;;;;;44.60;26.10;;;;;;;2.26;100.00;100202.34;5032643;28;20068;-83
2021/12/27 00:15:42;;;;;;;44.30;27.40;;;;;;;2.48;100.00;100240.53;5032469;28;20450;-83
2021/12/27 00:18:07;;;;;;;44.63;26.48;;;;;;;2.43;100.00;100226.31;5032528;28;20065;-81
2021/12/27 00:20:33;;;;;;;44.08;24.83;;;;;;;2.57;100.00;100252.91;5032373;28;20060;-91
2021/12/27 00:22:58;;;;;;;40.95;24.00;;;;;;;2.43;100.00;100234.78;5032672;28;20022;-81
2021/12/27 00:25:24;;;;;;;43.70;24.95;;;;;;;2.49;100.00;100237.09;5032542;28;20028;-85
2021/12/27 00:27:50;;;;;;;43.28;25.17;;;;;;;2.32;100.00;100202.97;5032573;28;20090;-87
2021/12/27 00:30:15;;;;;;;43.70;24.25;;;;;;;2.55;100.00;100225.81;5032342;28;20112;-81
2021/12/27 00:32:43;;;;;;;40.83;23.73;;;;;;;2.47;100.00;100215.94;5032666;28;20102;-83
2021/12/27 00:35:10;;;;;;;41.22;23.98;;;;;;;2.19;100.00;100169.50;5032482;28;20382;-76
2021/12/27 00:37:35;;;;;;;44.53;24.40;;;;;;;2.65;100.00;100233.94;5032479;28;20018;-92
2021/12/27 00:40:01;;;;;;;40.30;23.67;;;;;;;2.52;100.00;100216.56;5032471;28;20534;-90
2021/12/27 00:42:26;;;;;;;42.40;24.98;;;;;;;2.57;100.00;100217.25;5032417;28;20038;-89
2021/12/27 00:44:52;;;;;;;39.50;24.30;;;;;;;2.66;100.00;100222.88;5032733;28;20052;-82
2021/12/27 00:47:18;;;;;;;38.22;22.45;;;;;;;2.57;100.00;100201.94;5033064;28;20056;-89
2021/12/27 00:49:43;;;;;;;37.72;23.98;;;;;;;2.66;100.00;100216.06;5032565;28;20022;-90
2021/12/27 00:52:09;;;;;;;38.78;23.35;;;;;;;2.70;100.00;100217.56;5032681;28;20029;-83
2021/12/27 00:54:34;;;;;;;39.42;24.00;;;;;;;2.71;100.00;100206.47;5032545;28;20037;-82
2021/12/27 00:57:00;;;;;;;41.10;24.52;;;;;;;2.71;100.00;100201.38;5032238;28;20112;-83
2021/12/27 00:59:25;;;;;;;41.03;25.08;;;;;;;2.74;100.00;100197.88;5032370;28;20099;-85
2021/12/27 01:01:51;;;;;;;39.20;24.65;;;;;;;2.56;100.00;100167.16;5032344;28;20057;-91
2021/12/27 01:04:16;;;;;;;40.63;23.95;;;;;;;2.77;100.00;100200.31;5032626;28;20105;-87
2021/12/27 01:06:41;;;;;;;40.28;23.35;;;;;;;2.63;100.00;100172.81;5032161;28;20544;-87
2021/12/27 01:09:07;;;;;;;37.33;24.40;;;;;;;2.79;100.00;100193.44;5032140;28;20626;-83
2021/12/27 01:11:41;;;;;;;38.78;26.30;;;;;;;2.75;100.00;100181.69;5032174;28;20124;-87
2021/12/27 01:14:14;;;;;;;39.05;24.38;;;;;;;2.82;100.00;100188.19;5032191;28;20025;-88
2021/12/27 01:16:42;;;;;;;38.05;24.55;;;;;;;2.76;100.00;100184.19;5032311;28;20030;-77
2021/12/27 01:19:08;;;;;;;38.50;24.13;;;;;;;2.69;100.00;100171.75;5034972;28;20033;-77
2021/12/27 01:21:34;;;;;;;38.80;23.38;;;;;;;2.78;100.00;100184.94;5035621;28;20037;-82
2021/12/27 01:24:00;;;;;;;38.33;22.75;;;;;;;2.51;100.00;100143.56;5035662;28;20123;-85
2021/12/27 01:26:26;;;;;;;36.25;22.73;;;;;;;2.71;100.00;100173.34;5034400;28;20033;-89
2021/12/27 01:28:52;;;;;;;35.90;22.42;;;;;;;2.70;100.00;100161.50;5035609;28;20029;-85
2021/12/27 01:31:18;;;;;;;37.92;22.40;;;;;;;2.88;100.00;100193.06;5035707;28;20116;-82
2021/12/27 01:33:46;;;;;;;35.22;22.02;;;;;;;2.81;100.00;100172.06;5035744;28;20512;-76
2021/12/27 01:36:11;;;;;;;39.50;22.40;;;;;;;2.90;100.00;100178.50;5035265;28;20105;-88
2021/12/27 01:38:39;;;;;;;35.70;22.90;;;;;;;2.92;100.00;100181.81;5035544;28;20842;-87
2021/12/27 01:41:05;;;;;;;38.35;24.40;;;;;;;2.93;100.00;100185.19;5035280;28;20033;-85
2021/12/27 01:43:33;;;;;;;34.88;21.88;;;;;;;2.94;100.00;100174.94;5035358;28;20021;-85
2021/12/27 01:46:02;;;;;;;35.28;21.35;;;;;;;2.95;100.00;100175.75;5035542;28;20033;-91
2021/12/27 01:48:33;;;;;;;35.25;21.38;;;;;;;2.84;100.00;100156.63;5035295;28;20025;-78
2021/12/27 01:51:00;;;;;;;34.42;21.70;;;;;;;2.98;100.00;100173.09;5035177;28;20453;-84
2021/12/27 01:53:30;;;;;;;34.70;21.60;;;;;;;2.82;100.00;100145.66;5035308;28;20079;-85
2021/12/27 01:55:56;;;;;;;33.67;21.65;;;;;;;3.00;100.00;100173.84;5035235;28;20029;-81
2021/12/27 01:58:23;;;;;;;35.90;21.70;;;;;;;3.02;100.00;100175.44;5035015;28;20022;-80
2021/12/27 02:00:53;;;;;;;34.20;20.20;;;;;;;3.00;100.00;100164.47;5034980;28;20110;-88
2021/12/27 02:03:20;;;;;;;35.58;20.80;;;;;;;3.00;100.00;100166.19;5035152;28;20033;-90
2021/12/27 02:05:46;;;;;;;33.50;20.85;;;;;;;3.05;100.00;100177.88;5035063;28;20032;-91
2021/12/27 02:08:11;;;;;;;31.17;20.50;;;;;;;3.06;100.00;100171.88;5034595;28;20025;-86
2021/12/27 02:10:38;;;;;;;33.22;21.00;;;;;;;2.90;100.00;100140.25;5035207;28;20033;-91
2021/12/27 02:13:03;;;;;;;32.38;20.35;;;;;;;3.05;100.00;100170.22;5034845;28;20032;-79
2021/12/27 02:15:29;;;;;;;32.03;20.17;;;;;;;3.03;100.00;100164.34;5034913;28;20033;-83
2021/12/27 02:17:55;;;;;;;31.63;20.77;;;;;;;3.04;100.00;100163.44;5035005;28;20018;-89
2021/12/27 02:20:24;;;;;;;33.20;20.15;;;;;;;3.06;100.00;100164.22;5034527;28;20032;-83
2021/12/27 02:22:54;;;;;;;31.85;20.52;;;;;;;3.07;100.00;100162.50;5034420;28;20017;-90
2021/12/27 02:25:20;;;;;;;35.17;22.63;;;;;;;3.10;100.00;100170.03;5034623;28;20018;-79
2021/12/27 02:27:46;;;;;;;35.45;22.42;;;;;;;3.12;100.00;100165.66;5034718;28;20389;-88
2021/12/27 02:30:17;;;;;;;33.38;21.58;;;;;;;3.12;100.00;100166.50;5034118;28;20017;-86
2021/12/27 02:32:49;;;;;;;31.48;20.13;;;;;;;3.15;100.00;100161.28;5034555;28;20025;-90
2021/12/27 02:35:37;;;;;;;32.75;21.75;;;;;;;3.19;100.00;100156.88;5034387;28;20025;-84
2021/12/27 02:38:05;;;;;;;32.42;20.90;;;;;;;3.15;100.00;100160.47;5034210;28;20053;-88
2021/12/27 02:40:33;;;;;;;34.45;21.60;;;;;;;2.82;100.00;100106.59;5034216;28;20036;-89
2021/12/27 02:43:04;;;;;;;33.22;21.00;;;;;;;3.17;100.00;100158.66;5034247;28;20025;-86
2021/12/27 02:45:31;;;;;;;33.13;19.95;;;;;;;3.18;100.00;100157.75;5034274;28;20503;-89
2021/12/27 02:47:57;;;;;;;33.22;20.17;;;;;;;3.12;100.00;100148.66;5034340;28;20493;-86
2021/12/27 02:50:25;;;;;;;32.22;19.95;;;;;;;3.20;100.00;100161.06;5034169;28;20068;-87
2021/12/27 02:52:50;;;;;;;31.23;20.30;;;;;;;3.19;100.00;100163.69;5033812;28;20426;-80
2021/12/27 02:55:17;;;;;;;33.13;20.83;;;;;;;3.20;100.00;100155.97;5034131;28;20108;-85
2021/12/27 02:57:48;;;;;;;33.13;20.27;;;;;;;3.04;100.00;100120.06;5034174;28;20100;-87
2021/12/27 03:00:19;;;;;;;33.78;20.50;;;;;;;3.23;100.00;100147.34;5033763;28;20026;-91
2021/12/27 03:02:46;;;;;;;35.80;21.02;;;;;;;3.24;100.00;100143.91;5034155;28;20101;-85
2021/12/27 03:05:14;;;;;;;35.13;21.20;;;;;;;3.25;100.00;100143.84;5033695;28;20028;-89
2021/12/27 03:07:40;;;;;;;34.70;20.13;;;;;;;3.28;100.00;100148.00;5033683;28;20037;-85
2021/12/27 03:10:07;;;;;;;34.80;20.90;;;;;;;3.28;100.00;100137.78;5033696;28;20098;-80
2021/12/27 03:12:32;;;;;;;33.65;20.25;;;;;;;3.26;100.00;100130.19;5033909;28;20026;-91
2021/12/27 03:14:58;;;;;;;32.40;19.95;;;;;;;3.28;100.00;100136.06;5033826;28;20026;-90
2021/12/27 03:17:23;;;;;;;35.20;21.65;;;;;;;3.15;100.00;100114.53;5033464;28;20104;-90
2021/12/27 03:19:48;;;;;;;34.38;20.92;;;;;;;3.11;100.00;100101.06;5033758;28;20075;-79
2021/12/27 03:22:14;;;;;;;34.60;20.02;;;;;;;3.31;100.00;100129.97;5033179;28;20078;-89
2021/12/27 03:24:39;;;;;;;31.92;20.83;;;;;;;3.31;100.00;100129.97;5033503;28;20385;-78
2021/12/27 03:27:04;;;;;;;34.65;21.52;;;;;;;3.34;100.00;100133.25;5033599;28;20026;-88
2021/12/27 03:29:29;;;;;;;35.22;21.08;;;;;;;3.29;100.00;100113.91;5033434;28;20053;-80
2021/12/27 03:31:55;;;;;;;32.38;20.23;;;;;;;3.38;100.00;100123.72;5033300;28;20166;-85
2021/12/27 03:34:21;;;;;;;34.53;21.35;;;;;;;3.27;100.00;100108.06;5033409;28;20021;-82
2021/12/27 03:36:47;;;;;;;34.42;21.90;;;;;;;3.40;100.00;100119.38;5033374;28;20037;-85
2021/12/27 03:39:14;;;;;;;32.53;20.73;;;;;;;3.41;100.00;100129.50;5033074;28;20026;-82
2021/12/27 03:41:40;;;;;;;35.92;21.73;;;;;;;3.42;100.00;100118.41;5032483;28;20608;-88
2021/12/27 03:44:05;;;;;;;34.15;20.60;;;;;;;3.44;100.00;100125.97;5033247;28;20112;-91
2021/12/27 03:46:31;;;;;;;35.92;20.67;;;;;;;3.32;100.00;100104.38;5033231;28;20107;-90
2021/12/27 03:48:57;;;;;;;34.33;21.35;;;;;;;3.43;100.00;100119.22;5033284;28;20469;-85
2021/12/27 03:51:23;;;;;;;35.47;21.25;;;;;;;3.45;100.00;100120.84;5033228;28;20033;-87
2021/12/27 03:53:49;;;;;;;36.80;21.25;;;;;;;3.40;100.00;100106.59;5015105;28;20032;-81
2021/12/27 03:56:14;;;;;;;36.03;22.30;;;;;;;3.49;100.00;100113.03;5033054;28;20048;-85
2021/12/27 03:58:56;;;;;;;29.80;19.90;;;;;;;3.41;100.00;100092.94;5032988;28;20032;-90
2021/12/27 04:01:23;;;;;;;;;;;;;;;3.56;100.00;100101.66;5033155;28;20519;-89
2021/12/27 04:03:52;;;;;;;33.85;20.23;;;;;;;3.38;100.00;100076.06;5033147;28;19913;-86
2021/12/27 04:06:19;;;;;;;34.88;21.58;;;;;;;3.56;100.00;100101.66;5032945;28;20021;-89
2021/12/27 04:08:44;;;;;;;33.67;20.95;;;;;;;3.37;100.00;100060.81;5032966;28;20052;-87
2021/12/27 04:11:10;;;;;;;34.00;20.58;;;;;;;3.46;100.00;100078.28;5032801;28;20436;-90
2021/12/27 04:13:36;;;;;;;33.22;21.00;;;;;;;3.55;100.00;100085.50;5032739;28;20025;-88
2021/12/27 04:16:01;;;;;;;32.45;20.60;;;;;;;3.49;100.00;100073.00;5032827;28;20026;-88
2021/12/27 04:18:27;;;;;;;33.85;20.23;;;;;;;3.61;100.00;100086.94;5032718;28;20037;-85
2021/12/27 04:20:52;;;;;;;34.50;21.42;;;;;;;3.57;100.00;100075.22;5032646;28;20440;-90
2021/12/27 04:23:17;;;;;;;32.83;20.40;;;;;;;3.50;100.00;100056.81;5032488;28;20026;-84
2021/12/27 04:25:43;;;;;;;31.40;20.02;;;;;;;3.60;100.00;100064.88;5032719;28;20477;-85
2021/12/27 04:28:09;;;;;;;34.33;21.02;;;;;;;3.65;100.00;100073.16;5032609;28;20464;-85
2021/12/27 04:30:35;;;;;;;30.30;19.70;;;;;;;3.49;100.00;100044.13;5032677;28;20036;-90
2021/12/27 04:33:00;;;;;;;34.42;21.23;;;;;;;3.36;100.00;100019.16;5032775;28;20029;-90
2021/12/27 04:35:26;;;;;;;33.78;20.15;;;;;;;3.67;100.00;100066.25;5032583;28;20446;-80
2021/12/27 04:37:52;;;;;;;32.35;21.05;;;;;;;3.58;100.00;100049.63;5032395;28;20029;-89
2021/12/27 04:40:21;;;;;;;30.63;19.85;;;;;;;3.53;100.00;100041.34;5032591;28;20049;-86
2021/12/27 04:42:51;;;;;;;31.70;20.38;;;;;;;3.64;100.00;100061.28;5032711;28;20039;-88
2021/12/27 04:45:17;;;;;;;32.42;20.90;;;;;;;3.68;100.00;100068.72;5032715;28;20025;-79
2021/12/27 04:47:43;;;;;;;37.05;21.55;;;;;;;3.70;100.00;100055.88;5032397;28;20032;-84
2021/12/27 04:50:09;;;;;;;33.80;20.33;;;;;;;3.71;100.00;100050.69;5032506;28;20030;-79
2021/12/27 04:52:34;;;;;;;31.63;20.38;;;;;;;3.59;100.00;100030.03;5034530;28;20087;-83
2021/12/27 04:55:00;;;;;;;32.20;20.48;;;;;;;3.71;100.00;100048.13;5036226;28;20141;-85
2021/12/27 04:57:25;;;;;;;31.48;19.90;;;;;;;3.69;100.00;100054.22;5036200;28;20030;-79
2021/12/27 04:59:51;;;;;;;32.72;22.25;;;;;;;3.56;100.00;100040.38;5036294;28;20032;-75
2021/12/27 05:02:16;;;;;;;35.88;21.40;;;;;;;3.58;100.00;100041.97;5036315;28;20037;-82
2021/12/27 05:04:41;;;;;;;34.75;20.35;;;;;;;3.70;100.00;100059.25;5036204;28;20030;-80
2021/12/27 05:07:07;;;;;;;32.13;20.15;;;;;;;3.72;100.00;100060.00;5036160;28;20075;-90
2021/12/27 05:09:32;;;;;;;34.10;20.38;;;;;;;3.73;100.00;100054.00;5035533;28;20057;-90
2021/12/27 05:11:57;;;;;;;31.67;19.98;;;;;;;3.74;100.00;100054.84;5036191;28;20033;-90
2021/12/27 05:14:23;;;;;;;31.35;19.35;;;;;;;3.74;100.00;100052.28;5036162;28;20444;-87
2021/12/27 05:16:48;;;;;;;32.63;20.67;;;;;;;3.75;100.00;100053.94;5035979;28;20507;-88
2021/12/27 05:19:14;;;;;;;33.55;20.23;;;;;;;3.68;100.00;100027.03;5035939;28;20385;-91
2021/12/27 05:21:40;;;;;;;32.58;19.83;;;;;;;3.77;100.00;100041.09;5035652;28;20025;-91
2021/12/27 05:24:06;;;;;;;31.73;20.27;;;;;;;3.74;100.00;100031.88;5035475;28;20079;-90
2021/12/27 05:26:31;;;;;;;31.45;19.85;;;;;;;3.80;100.00;100041.78;5035770;28;20032;-88
2021/12/27 05:28:57;;;;;;;31.80;20.23;;;;;;;3.75;100.00;100028.41;5035936;28;20377;-88
2021/12/27 05:31:22;;;;;;;33.70;21.52;;;;;;;3.81;100.00;100028.09;5035809;28;20120;-91
2021/12/27 05:33:48;;;;;;;32.92;21.00;;;;;;;3.74;100.00;100019.09;5035736;28;20060;-90
2021/12/27 05:36:13;;;;;;;32.97;21.60;;;;;;;3.67;100.00;100007.53;5035693;28;20430;-90
2021/12/27 05:38:40;;;;;;;34.38;20.73;;;;;;;3.90;100.00;100035.31;5035240;28;20469;-90
2021/12/27 05:41:05;;;;;;;32.40;20.77;;;;;;;3.92;100.00;100032.69;5035328;28;20030;-85
2021/12/27 05:43:31;;;;;;;33.55;21.17;;;;;;;3.91;100.00;100028.50;5035751;28;20362;-91
2021/12/27 05:45:57;;;;;;;33.03;21.73;;;;;;;3.98;100.00;100029.84;5035295;28;20072;-91
2021/12/27 05:48:22;;;;;;;32.72;21.17;;;;;;;3.91;100.00;100018.28;5035506;28;20025;-91
2021/12/27 05:50:47;;;;;;;32.70;20.52;;;;;;;3.83;100.00;100007.59;5035495;28;20040;-88
2021/12/27 05:53:13;;;;;;;31.10;19.80;;;;;;;4.00;100.00;100030.59;5035248;28;20028;-93
2021/12/27 05:55:38;;;;;;;29.33;19.67;;;;;;;4.01;100.00;100030.53;5034910;28;20034;-92
2021/12/27 05:58:04;;;;;;;32.75;20.08;;;;;;;4.02;100.00;100031.34;5035114;28;20021;-90
2021/12/27 06:00:31;;;;;;;30.23;20.20;;;;;;;3.98;100.00;100024.75;5035084;28;20039;-83
2021/12/27 06:02:57;;;;;;;30.30;19.10;;;;;;;3.98;100.00;100023.00;5017165;28;20100;-89
2021/12/27 06:05:23;;;;;;;30.00;19.52;;;;;;;3.76;100.00;99994.31;5034616;28;20029;-90
2021/12/27 06:07:49;;;;;;;29.63;18.45;;;;;;;4.03;100.00;100038.09;5034963;28;20378;-84
2021/12/27 06:10:15;;;;;;;29.75;19.05;;;;;;;4.07;100.00;100041.34;5034668;28;20084;-90
2021/12/27 06:12:40;;;;;;;32.72;20.08;;;;;;;4.10;100.00;100036.91;5034972;28;20030;-86
2021/12/27 06:15:06;;;;;;;30.75;19.45;;;;;;;4.11;100.00;100040.28;5035019;28;20096;-89
2021/12/27 06:17:33;;;;;;;30.15;19.95;;;;;;;4.11;100.00;100041.13;5034602;28;20034;-76
2021/12/27 06:20:00;;;;;;;29.08;19.45;;;;;;;4.14;100.00;100035.06;5034751;28;20048;-82
2021/12/27 06:22:25;;;;;;;30.85;19.33;;;;;;;4.15;100.00;100039.25;5034646;28;20075;-76
2021/12/27 06:24:51;;;;;;;28.80;18.33;;;;;;;4.17;100.00;100035.72;5034737;28;20033;-88
2021/12/27 06:27:16;;;;;;;31.13;18.63;;;;;;;4.19;100.00;100031.34;5034624;28;20025;-82
2021/12/27 06:29:42;;;;;;;30.02;19.05;;;;;;;4.20;100.00;100035.56;5034543;28;20026;-85
2021/12/27 06:32:13;;;;;;;27.63;18.42;;;;;;;4.18;100.00;100027.16;5034683;28;20025;-87
2021/12/27 06:34:38;;;;;;;27.60;18.52;;;;;;;4.22;100.00;100022.69;5034528;28;20026;-76
2021/12/27 06:37:04;;;;;;;29.58;19.38;;;;;;;4.26;100.00;100021.66;5034507;28;20432;-81
2021/12/27 06:39:29;;;;;;;29.83;18.70;;;;;;;4.22;100.00;100013.31;5034405;28;20036;-77
2021/12/27 06:41:54;;;;;;;29.27;18.73;;;;;;;4.29;100.00;100026.63;5034257;28;20072;-90
2021/12/27 06:44:20;;;;;;;32.53;19.27;;;;;;;4.32;100.00;100023.91;5034388;28;20037;-87
2021/12/27 06:46:45;;;;;;;29.20;18.95;;;;;;;4.32;100.00;100022.16;5034282;28;20439;-85
2021/12/27 06:49:10;;;;;;;30.48;18.98;;;;;;;4.16;100.00;99987.25;5034155;28;20026;-90
2021/12/27 06:51:36;;;;;;;29.08;18.02;;;;;;;4.30;100.00;100011.19;5034216;28;20377;-87
2021/12/27 06:54:01;;;;;;;29.40;18.88;;;;;;;4.38;100.00;100015.94;5034383;28;20030;-85
2021/12/27 06:56:26;;;;;;;31.20;18.67;;;;;;;4.39;100.00;100012.47;5033763;28;20092;-84
2021/12/27 06:58:52;;;;;;;32.38;19.42;;;;;;;4.23;100.00;99983.50;5034305;28;20021;-86
2021/12/27 07:01:17;;;;;;;31.58;19.95;;;;;;;4.41;100.00;100008.09;5033970;28;20410;-85
2021/12/27 07:03:43;;;;;;;31.20;18.77;;;;;;;4.43;100.00;100005.50;5033955;28;20029;-84
2021/12/27 07:06:08;;;;;;;29.38;18.70;;;;;;;4.15;100.00;99965.16;5033902;28;20059;-87
2021/12/27 07:08:34;;;;;;;29.05;19.00;;;;;;;4.46;100.00;100010.44;5034023;28;20049;-84
2021/12/27 07:10:59;;;;;;;32.88;19.25;;;;;;;4.48;100.00;100006.06;5033634;28;20060;-88
2021/12/27 07:13:25;;;;;;;30.08;18.75;;;;;;;4.47;100.00;100010.34;5033628;28;20026;-78
2021/12/27 07:15:51;;;;;;;28.27;18.17;;;;;;;4.50;100.00;100009.38;5033695;28;20021;-82
2021/12/27 07:18:23;;;;;;;28.30;18.38;;;;;;;4.38;100.00;99985.25;5033802;28;20531;-83
2021/12/27 07:20:52;;;;;;;29.15;18.52;;;;;;;4.45;100.00;99991.72;5033690;28;20030;-88
2021/12/27 07:23:19;;;;;;;28.90;18.30;;;;;;;4.49;100.00;100000.88;5033872;28;20442;-89
2021/12/27 07:25:44;;;;;;;32.28;19.17;;;;;;;4.51;100.00;99995.66;5035147;28;20032;-88
2021/12/27 07:28:09;;;;;;;29.98;18.90;;;;;;;4.52;100.00;99992.22;5034950;28;20116;-91
2021/12/27 07:30:35;;;;;;;31.73;18.33;;;;;;;4.54;100.00;99987.88;5035839;28;20465;-82
2021/12/27 07:33:00;;;;;;;30.23;19.20;;;;;;;4.53;100.00;99987.03;5034792;28;20022;-86
2021/12/27 07:35:26;;;;;;;30.70;19.42;;;;;;;4.54;100.00;99987.88;5034738;28;20091;-92
2021/12/27 07:37:52;;;;;;;33.63;19.20;;;;;;;4.42;100.00;99957.78;5033608;28;20420;-80
2021/12/27 07:40:18;;;;;;;28.10;17.35;;;;;;;4.41;100.00;99954.41;5035536;28;20071;-75
2021/12/27 07:42:43;;;;;;;31.13;18.25;;;;;;;4.61;100.00;99989.19;5035616;28;20029;-88
2021/12/27 07:45:09;;;;;;;34.45;21.42;;;;;;;4.60;100.00;99990.91;5033439;28;20384;-76
2021/12/27 07:47:34;;;;;;;31.55;19.50;;;;;;;4.61;100.00;99994.28;5034578;28;20032;-91
2021/12/27 07:49:59;;;;;;;27.77;18.92;;;;;;;4.60;100.00;99984.97;5033970;28;20032;-90
2021/12/27 07:52:25;;;;;;;30.95;17.90;;;;;;;4.62;100.00;99995.94;5033624;28;20037;-78
2021/12/27 07:54:50;;;;;;;27.83;17.60;;;;;;;4.59;100.00;99991.81;5033278;28;20071;-86
2021/12/27 07:57:16;;;;;;;29.40;18.05;;;;;;;4.57;100.00;99991.09;5036015;28;20029;-80
2021/12/27 07:59:42;;;;;;;29.88;17.83;;;;;;;4.58;100.00;99987.63;5033307;28;20022;-81
2021/12/27 08:02:10;;;;;;;26.58;17.05;;;;;;;4.53;100.00;99988.78;5034077;28;20029;-95
2021/12/27 08:04:36;;;;;;;27.02;17.63;;;;;;;4.56;100.00;100003.94;5033603;28;20024;-93
2021/12/27 08:07:02;;;;;;;29.08;17.75;;;;;;;4.56;100.00;99997.09;5035783;28;20465;-90
2021/12/27 08:09:27;;;;;;;27.00;17.20;;;;;;;4.59;100.00;100001.22;5037292;28;20041;-84
2021/12/27 08:11:53;;;;;;;24.33;16.40;;;;;;;4.52;100.00;99985.41;5034838;28;20021;-88
2021/12/27 08:14:18;;;;;;;25.77;16.63;;;;;;;4.63;100.00;99997.63;5033048;28;20061;-87
2021/12/27 08:16:43;;;;;;;27.33;17.48;;;;;;;4.65;100.00;99995.81;5032783;28;20527;-88
2021/12/27 08:19:09;;;;;;;26.25;16.92;;;;;;;4.68;100.00;100005.03;5032832;28;20112;-79
2021/12/27 08:21:34;;;;;;;27.33;16.50;;;;;;;4.36;100.00;99958.13;5032829;28;20380;-88
2021/12/27 08:24:00;;;;;;;26.90;15.68;;;;;;;4.70;100.00;100008.34;5033198;28;20030;-92
2021/12/27 08:26:25;;;;;;;29.52;17.25;;;;;;;4.58;100.00;99990.19;5033369;28;20017;-90
2021/12/27 08:28:53;;;;;;;27.02;17.40;;;;;;;4.75;100.00;100012.31;5039311;28;20028;-89
2021/12/27 08:31:18;;;;;;;25.25;16.20;;;;;;;4.78;100.00;100009.59;5039447;28;20083;-93
2021/12/27 08:33:43;;;;;;;27.40;16.25;;;;;;;4.64;100.00;99985.66;5039370;28;20033;-85
2021/12/27 08:36:09;;;;;;;25.13;16.25;;;;;;;4.82;100.00;100008.56;5039450;28;20033;-82
2021/12/27 08:38:34;;;;;;;26.15;16.50;;;;;;;4.46;100.00;99938.84;5039174;28;20028;-84
2021/12/27 08:40:59;;;;;;;23.73;15.57;;;;;;;4.79;100.00;99992.53;5038803;28;20036;-84
2021/12/27 08:43:25;;;;;;;25.23;16.48;;;;;;;4.86;100.00;99999.78;5038946;28;20030;-84
2021/12/27 08:45:52;;;;;;;25.73;15.52;;;;;;;4.86;100.00;99999.78;5038999;28;20021;-84
2021/12/27 08:48:18;;;;;;;26.92;16.17;;;;;;;4.93;100.00;99989.25;5039663;28;20114;-89
2021/12/27 08:50:43;;;;;;;27.58;16.75;;;;;;;4.84;100.00;99962.44;5039614;28;20029;-89
2021/12/27 08:53:08;;;;;;;25.25;16.65;;;;;;;4.92;100.00;99965.41;5039595;28;20117;-84
2021/12/27 08:55:35;;;;;;;23.08;15.15;;;;;;;5.08;100.00;99980.75;5038981;28;20031;-86
2021/12/27 08:58:02;;;;;;;25.58;16.25;;;;;;;5.10;100.00;99984.03;5039680;28;20025;-88
2021/12/27 09:00:28;;;;;;;23.52;16.60;;;;;;;4.94;100.00;99952.53;5040270;28;20136;-92
2021/12/27 09:02:53;;;;;;;25.30;17.88;;;;;;;4.96;100.00;99959.19;5040626;28;20117;-89
2021/12/27 09:05:19;;;;;;;26.77;17.42;;;;;;;4.79;100.00;99931.13;5040209;28;20056;-87
2021/12/27 09:07:44;;;;;;;28.92;17.48;;;;;;;4.86;100.00;99951.19;5040951;28;20033;-82
2021/12/27 09:10:10;;;;;;;25.38;16.05;;;;;;;4.79;100.00;99952.41;5040077;28;20397;-87
2021/12/27 09:12:38;;;;;;;26.70;16.67;;;;;;;4.73;100.00;99952.75;5039921;28;20358;-88
2021/12/27 09:15:04;;;;;;;27.38;16.98;;;;;;;4.58;100.00;99933.91;5038866;28;20495;-88
2021/12/27 09:17:29;;;;;;;27.55;17.40;;;;;;;4.55;100.00;99923.88;5038641;28;20108;-86
2021/12/27 09:19:54;;;;;;;27.00;16.42;;;;;;;4.66;100.00;99946.31;5039021;28;20108;-77
2021/12/27 09:22:20;;;;;;;25.05;16.30;;;;;;;4.62;100.00;99942.25;5038736;28;20078;-76
2021/12/27 09:24:46;;;;;;;26.75;16.55;;;;;;;4.56;100.00;99945.16;5038881;28;20036;-92
2021/12/27 09:27:12;;;;;;;24.20;16.92;;;;;;;4.64;100.00;99962.66;5038912;28;20033;-90
2021/12/27 09:29:37;;;;;;;26.42;17.73;;;;;;;4.61;100.00;99979.78;5038929;28;20083;-87
2021/12/27 09:32:04;;;;;;;25.38;16.95;;;;;;;4.48;100.00;99960.06;5038593;28;20030;-84
2021/12/27 09:34:29;;;;;;;26.67;16.88;;;;;;;4.54;100.00;99977.63;5039124;28;20060;-91
2021/12/27 09:36:55;;;;;;;26.80;16.75;;;;;;;4.59;100.00;99981.59;5020885;28;20057;-86
2021/12/27 09:39:20;;;;;;;27.15;17.58;;;;;;;4.59;100.00;99958.59;5035444;28;20029;-90
2021/12/27 09:41:45;;;;;;;25.80;16.27;;;;;;;4.73;100.00;99944.25;5035285;28;20029;-74
2021/12/27 09:44:11;;;;;;;25.75;16.63;;;;;;;5.06;100.00;99978.28;5036526;28;20484;-91
2021/12/27 09:46:37;;;;;;;26.10;16.88;;;;;;;5.09;100.00;99944.00;5038255;28;20028;-91
2021/12/27 09:49:06;;;;;;;23.90;15.95;;;;;;;5.27;100.00;99960.09;5037691;28;20060;-90
2021/12/27 09:51:34;;;;;;;25.52;15.68;;;;;;;5.38;100.00;99963.72;5035500;28;20030;-93
2021/12/27 09:54:01;;;;;;;26.75;16.17;;;;;;;5.45;100.00;99953.97;5036030;28;20384;-88
2021/12/27 09:56:26;;;;;;;24.83;15.82;;;;;;;5.52;100.00;99954.47;5035270;28;20048;-83
2021/12/27 09:58:53;;;;;;;22.98;15.70;;;;;;;5.39;100.00;99924.41;5035331;28;20453;-86
2021/12/27 10:01:18;;;;;;;23.00;16.38;;;;;;;5.50;100.00;99946.84;5035141;28;20032;-87
2021/12/27 10:03:50;;;;;;;25.38;16.52;;;;;;;5.45;99.95;99944.56;5035003;28;20532;-82
2021/12/27 10:06:17;;;;;;;23.75;16.38;;;;;;;5.29;99.91;99919.88;5034978;28;20082;-86
2021/12/27 10:08:50;;;;;;;26.10;17.67;;;;;;;5.41;99.53;99940.53;5035052;28;20054;-87
2021/12/27 10:11:34;;;;;;;26.42;17.52;;;;;;;5.38;99.81;99930.44;5035171;28;20037;-90
2021/12/27 10:14:20;;;;;;;28.90;18.67;;;;;;;5.36;99.71;99934.81;5034733;28;20111;-84
2021/12/27 10:17:05;;;;;;;28.15;19.42;;;;;;;5.35;100.00;99911.88;5036690;28;20038;-90
2021/12/27 10:19:33;;;;;;;27.70;18.95;;;;;;;5.35;99.71;99902.44;5035312;28;20022;-88
2021/12/27 10:21:59;;;;;;;29.40;19.80;;;;;;;5.35;99.75;99899.88;5034765;28;20500;-82
2021/12/27 10:24:29;;;;;;;29.27;20.15;;;;;;;5.31;99.40;99895.88;5034888;28;20101;-92
2021/12/27 10:27:00;;;;;;;30.30;20.23;;;;;;;5.25;99.44;99887.69;5034595;28;20060;-88
2021/12/27 10:29:33;;;;;;;30.83;21.05;;;;;;;5.12;99.89;99892.69;5034726;28;20029;-79
2021/12/27 10:32:00;;;;;;;26.73;18.65;;;;;;;5.02;100.00;99900.03;5035084;28;20025;-85
2021/12/27 10:34:32;;;;;;;27.92;19.42;;;;;;;4.59;100.00;99846.06;5033225;28;20053;-78
2021/12/27 10:37:07;;;;;;;28.65;19.13;;;;;;;4.88;100.00;99917.84;5034436;28;20025;-88
2021/12/27 10:39:50;;;;;;;29.88;19.90;;;;;;;4.85;100.00;99913.75;5034458;28;20469;-88
2021/12/27 10:42:50;;;;;;;30.90;20.17;;;;;;;4.82;100.00;99893.44;5034336;28;20397;-88
2021/12/27 10:45:19;;;;;;;30.77;21.42;;;;;;;5.04;100.00;99911.00;4954400;29;20039;-87
2021/12/27 10:47:49;;;;;;;29.00;20.85;;;;;;;5.19;100.00;99905.03;4954147;29;20043;-93
2021/12/27 10:50:25;;;;;;;27.17;18.67;;;;;;;5.34;100.00;99907.66;4954791;28;20083;-91
2021/12/27 10:52:53;;;;;;;25.92;18.63;;;;;;;5.47;100.00;99899.19;4955012;29;20035;-93
2021/12/27 10:55:22;;;;;;;23.85;15.77;;;;;;;5.64;100.00;99900.81;4954236;29;20055;-90
2021/12/27 10:57:49;;;;;;;23.00;14.60;;;;;;;5.83;99.69;99902.31;4964994;28;20034;-86
2021/12/27 11:00:24;;;;;;;22.63;14.88;;;;;;;6.02;98.87;99900.34;4992991;28;20494;-75
2021/12/27 11:02:51;;;;;;;38.95;20.52;;;;;;;6.14;98.18;99903.91;4992783;28;20529;-82
2021/12/27 11:05:19;;;;;;;30.35;16.40;;;;;;;6.25;97.96;99899.78;4992371;28;20113;-78
2021/12/27 11:07:45;;;;;;;24.02;16.10;;;;;;;6.36;97.57;99903.47;4992476;28;20438;-76
2021/12/27 11:10:10;;;;;;;25.48;16.60;;;;;;;6.28;97.04;99861.16;4992160;28;20051;-79